Latest Coastal Weather Observations for Karratha

IDW60701

Issued at 9:12 am WST Tuesday 25 June 2024 (issued every 10 minutes, with the page automatically refreshed every 10 minutes)

About coastal observations | Map of coastal stations | Coastal observations for WA | Marine services | Other Formats
Station Details ID: 004083 Name: KARRATHA AERO Lat: -20.71 Lon: 116.77 Height: 5.3 m
Data from the previous 72 hours. | See also: Recent months at Karratha
Date/Time
WST
Wind Sea
Height
m
Swell Vis
km
Cloud Weather Temp
°C
Press
MSL
hPa
Rain since
9am
mm
Dir  Spd
kts
Gust
kts
Height
m
Period
s
Dir
25/09:00am E 11 13 - - - - 68 Cloudy - 22.7 1015.4 0.0
25/08:30am E 8 11 - - - - 10 Partly cloudy - 21.6 1015.2 0.0
25/08:00am E 6 7 - - - - 10 Partly cloudy - 20.3 1015.0 0.0
25/07:30am CALM 0 0 - - - - - - - 17.3 - 0.0
25/07:00am CALM 0 0 - - - - 10 Partly cloudy - 16.5 1014.4 0.0
25/06:30am CALM 0 0 - - - - - - - 16.5 - 0.0
25/06:00am CALM 0 0 - - - - 10 - - 16.1 1013.9 0.0
25/05:30am CALM 0 0 - - - - 10 - - 16.1 1013.8 0.0
25/05:00am CALM 0 0 - - - - 10 - - 16.3 1013.6 0.0
25/04:30am CALM 0 0 - - - - - - - 16.1 - 0.0
25/04:00am SSE 6 7 - - - - 10 - - 16.1 1013.8 0.0
25/03:55am SSE 6 7 - - - - 10 - - 16.2 1013.8 0.0
25/03:30am SSE 5 7 - - - - 2 - - 16.3 1013.8 0.0
25/03:00am S 7 7 - - - - 2 - - 16.5 1013.9 0.0
25/02:43am SSE 8 9 - - - - 6 - - 16.7 1014.0 0.0
25/02:34am S 9 10 - - - - 10 - - 16.8 1014.1 0.0
25/02:30am S 8 10 - - - - 10 - - 17.1 1014.1 0.0
25/02:10am S 7 8 - - - - 6 - - 16.7 1014.2 0.0
25/02:00am S 7 8 - - - - 10 - - 16.6 1014.3 0.0
25/01:30am S 9 10 - - - - 10 - - 16.8 1014.6 0.0
25/01:00am S 9 10 - - - - 10 - - 17.0 1014.8 0.0
25/12:30am SE 3 4 - - - - 10 - - 17.0 1014.6 0.0
25/12:00am ESE 4 4 - - - - 10 - - 17.3 1014.7 0.0
 
Date/Time
WST
Wind Sea
Height
m
Swell Vis
km
Cloud Weather Temp
°C
Press
MSL
hPa
Rain since
9am
mm
Dir  Spd
kts
Gust
kts
Height
m
Period
s
Dir
24/11:30pm ESE 3 4 - - - - 10 - - 17.6 1014.9 0.0
24/11:00pm ESE 4 4 - - - - 9 - - 18.0 1015.0 0.0
24/10:30pm ENE 3 5 - - - - 10 - - 18.4 1015.2 0.0
24/10:00pm SE 5 5 - - - - 10 - - 18.3 1015.5 0.0
24/09:30pm SE 4 5 - - - - 10 - - 19.3 1015.5 0.0
24/09:00pm E 4 5 - - - - 10 - - 19.6 1015.5 0.0
24/08:30pm CALM 0 0 - - - - 10 - - 21.5 1015.4 0.0
24/08:00pm N 4 5 - - - - 10 - - 22.1 1015.2 0.0
24/07:30pm N 5 7 - - - - 10 - - 21.5 1015.1 0.0
24/07:00pm ENE 6 7 - - - - 10 - - 21.1 1015.1 0.0
24/06:30pm NNE 7 8 - - - - 10 - - 22.1 1014.9 0.0
24/06:00pm NE 7 8 - - - - 10 - - 22.5 1014.9 0.0
24/05:30pm NE 9 10 - - - - 10 - - 23.8 1014.7 0.0
24/05:00pm NE 10 12 - - - - 10 - - 24.5 1014.8 0.0
24/04:30pm NE 11 14 - - - - 10 - - 25.0 1014.6 0.0
24/04:00pm NE 12 14 - - - - 10 - - 25.1 1014.7 0.0
24/03:30pm NE 13 17 - - - - 10 - - 25.5 1014.8 0.0
24/03:00pm NE 12 15 - - - - 10 - - 25.8 1014.9 0.0
24/02:30pm NE 13 16 - - - - 10 - - 26.0 1015.0 0.0
24/02:00pm NE 14 17 - - - - 10 - - 25.9 1015.3 0.0
24/01:30pm NE 14 16 - - - - 10 - - 25.9 1015.8 0.0
24/01:00pm NE 14 17 - - - - 10 - - 25.6 1016.2 0.0
24/12:30pm NE 14 18 - - - - 10 Partly cloudy - 25.9 1016.6 0.0
24/12:00pm NE 16 20 - - - - 10 - - 26.1 1017.0 0.0
24/11:30am ENE 17 20 - - - - 10 Partly cloudy - 26.2 1017.6 0.0
24/11:00am ENE 14 18 - - - - 10 Partly cloudy - 26.4 1017.8 0.0
24/10:30am E 15 19 - - - - - - - 26.2 - 0.0
24/10:00am E 15 18 - - - - 10 - - 25.5 1018.1 0.0
24/09:30am E 14 18 - - - - 10 - - 25.0 1018.2 0.0
24/09:00am ESE 12 16 - - - - 10 Partly cloudy - 23.9 1018.3 0.0
24/08:30am ESE 11 15 - - - - 10 - - 23.3 1018.2 0.0
24/08:00am ESE 11 13 - - - - 10 - - 22.4 1017.9 0.0
24/07:30am ESE 11 13 - - - - 10 - - 20.8 1017.6 0.0
24/07:00am ESE 10 12 - - - - 10 - - 19.1 1017.1 0.0
24/06:30am ESE 9 11 - - - - 10 - - 18.4 1016.8 0.0
24/06:00am SE 3 4 - - - - 10 - - 16.1 1016.5 0.0
24/05:30am SSE 7 8 - - - - 10 - - 16.3 1016.4 0.0
24/05:00am S 7 7 - - - - 10 - - 16.5 1016.2 0.0
24/04:30am SSE 6 7 - - - - 10 - - 17.4 1016.3 0.0
24/04:00am SE 4 4 - - - - 10 - - 17.2 1016.2 0.0
24/03:30am ESE 3 4 - - - - 10 - - 17.6 1016.3 0.0
24/03:00am ESE 7 8 - - - - 10 - - 17.2 1016.4 0.0
24/02:30am SSE 9 10 - - - - 10 - - 17.5 1016.5 0.0
24/02:00am S 7 8 - - - - 10 - - 17.4 1016.7 0.0
24/01:30am S 8 9 - - - - 10 - - 17.6 1016.9 0.0
24/01:00am S 7 8 - - - - 10 - - 18.1 1017.2 0.0
24/12:30am S 7 8 - - - - 10 - - 18.2 1017.4 0.0
24/12:00am S 8 9 - - - - 10 - - 18.5 1017.5 0.0
 
Date/Time
WST
Wind Sea
Height
m
Swell Vis
km
Cloud Weather Temp
°C
Press
MSL
hPa
Rain since
9am
mm
Dir  Spd
kts
Gust
kts
Height
m
Period
s
Dir
23/11:30pm S 6 7 - - - - 10 - - 18.6 1017.6 0.0
23/11:00pm S 5 6 - - - - 10 - - 18.6 1017.6 0.0
23/10:30pm SSE 6 7 - - - - 10 - - 18.7 1017.7 0.0
23/10:00pm S 8 8 - - - - 10 - - 19.1 1017.7 0.0
23/09:30pm S 7 8 - - - - 10 - - 19.6 1017.5 0.0
23/09:00pm NNE 3 4 - - - - 10 - - 21.1 1017.3 0.0
23/08:30pm NNE 3 4 - - - - 10 - - 21.0 1017.3 0.0
23/08:00pm NNE 4 5 - - - - 10 - - 21.2 1017.1 0.0
23/07:30pm NNE 3 3 - - - - 10 - - 21.8 1017.0 0.0
23/07:00pm NNE 4 5 - - - - 10 - - 22.6 1016.7 0.0
23/06:30pm NNE 1 3 - - - - 10 - - 22.9 1016.6 0.0
23/06:00pm NNE 5 7 - - - - 10 - - 23.4 1016.4 0.0
23/05:30pm N 6 8 - - - - 10 - - 24.3 1016.2 0.0
23/05:00pm NNE 9 13 - - - - - - - 25.3 1015.9 0.0
23/04:30pm NNE 12 14 - - - - 10 - - 26.0 1016.0 0.0
23/04:00pm NNE 11 14 - - - - 10 - - 26.3 1016.0 0.0
23/03:30pm NNE 13 16 - - - - 10 - - 26.5 1016.0 0.0
23/03:00pm NE 13 17 - - - - 10 - - 27.1 1016.2 0.0
23/02:30pm NE 13 17 - - - - 10 - - 27.0 1016.4 0.0
23/02:00pm NE 13 16 - - - - 10 - - 27.5 1016.7 0.0
23/01:30pm NE 13 17 - - - - 10 - - 27.2 1017.1 0.0
23/01:00pm NE 13 17 - - - - 10 - - 27.3 1017.6 0.0
23/12:30pm NE 14 17 - - - - 10 - - 27.5 1017.9 0.0
23/12:00pm NE 11 13 - - - - 10 - - 27.2 1018.3 0.0
23/11:30am ENE 9 12 - - - - 10 - - 27.5 1018.8 0.0
23/11:00am E 9 11 - - - - 10 - - 26.9 1019.3 0.0
23/10:30am E 9 12 - - - - 10 - - 26.2 1019.4 0.0
23/10:00am E 7 9 - - - - 10 - - 24.9 1019.5 0.0
23/09:30am ENE 7 9 - - - - 10 - - 24.2 1019.7 0.0
23/09:00am E 6 8 - - - - 10 - - 23.1 1019.5 0.0
23/08:30am SSE 5 7 - - - - 10 - - 20.3 1019.3 0.0
23/08:00am SSE 5 7 - - - - 10 - - 18.3 1019.0 0.0
23/07:30am S 5 6 - - - - 10 - - 16.5 1018.8 0.0
23/07:00am ESE 4 5 - - - - 10 - - 15.5 1018.4 0.0
23/06:30am SE 5 6 - - - - 10 - - 15.6 1017.9 0.0
23/06:00am S 5 6 - - - - 10 - - 16.4 1017.8 0.0
23/05:30am SSW 4 4 - - - - 10 - - 16.2 1017.5 0.0
23/05:00am S 4 5 - - - - 10 - - 15.8 1017.7 0.0
23/04:30am S 3 5 - - - - 10 - - 16.4 1017.5 0.0
23/04:00am SW 6 8 - - - - 10 - - 16.6 1017.6 0.0
23/03:30am S 5 6 - - - - 10 - - 16.8 1017.7 0.0
23/03:00am S 2 4 - - - - 10 - - 17.2 1017.6 0.0
23/02:30am SSE 5 6 - - - - 10 - - 17.0 1017.8 0.0
23/02:00am S 5 6 - - - - 10 - - 17.3 1017.9 0.0
23/01:30am SSE 6 7 - - - - 10 - - 17.5 1018.0 0.0
23/01:00am SSE 6 7 - - - - 10 - - 17.7 1018.0 0.0
23/12:30am SSE 5 5 - - - - 10 - - 17.9 1018.0 0.0
23/12:00am SSE 6 7 - - - - 10 - - 18.0 1018.3 0.0
 
Date/Time
WST
Wind Sea
Height
m
Swell Vis
km
Cloud Weather Temp
°C
Press
MSL
hPa
Rain since
9am
mm
Dir  Spd
kts
Gust
kts
Height
m
Period
s
Dir
22/11:30pm SSE 6 7 - - - - 10 - - 17.5 1018.5 0.0
22/11:00pm SSE 9 10 - - - - 10 - - 17.8 1018.5 0.0
22/10:30pm S 8 9 - - - - 10 - - 18.4 1018.2 0.0
22/10:00pm SSE 7 8 - - - - 10 - - 18.7 1018.0 0.0
22/09:30pm SE 5 6 - - - - 10 - - 19.0 1017.9 0.0
22/09:00pm E 5 5 - - - - 10 - - 19.5 1017.6 0.0
22/08:30pm CALM 0 0 - - - - 10 - - 19.9 1017.4 0.0
22/08:00pm ENE 5 6 - - - - 10 - - 20.4 1017.4 0.0
22/07:30pm ENE 4 5 - - - - 10 - - 21.5 1017.4 0.0
22/07:00pm ENE 5 5 - - - - 10 - - 21.5 1017.1 0.0
22/06:30pm ENE 6 7 - - - - 10 - - 21.9 1016.9 0.0
22/06:00pm ENE 8 9 - - - - 10 - - 22.7 1016.7 0.0
22/05:30pm NE 11 13 - - - - 10 - - 24.0 1016.5 0.0
22/05:00pm NE 12 16 - - - - 10 - - 24.8 1016.4 0.0
22/04:30pm NE 12 15 - - - - 10 - - 25.7 1016.2 0.0
22/04:00pm NE 13 16 - - - - 10 - - 26.1 1016.2 0.0
22/03:30pm NE 15 19 - - - - 10 - - 27.0 1016.2 0.0
22/03:00pm NE 15 19 - - - - 10 - - 27.1 1016.2 0.0
22/02:30pm ENE 15 19 - - - - 10 - - 27.5 1016.3 0.0
22/02:00pm ENE 15 20 - - - - 10 - - 27.9 1016.5 0.0
22/01:30pm ENE 15 19 - - - - 10 - - 27.1 1017.0 0.0
22/01:00pm ENE 17 20 - - - - 10 - - 27.4 1017.5 0.0
22/12:30pm ENE 17 21 - - - - 10 - - 27.2 1018.0 0.0
22/12:00pm ENE 16 20 - - - - 10 - - 26.8 1018.4 0.0
22/11:30am ENE 17 19 - - - - 10 - - 27.2 1018.8 0.0
22/11:00am ENE 18 22 - - - - 10 - - 26.8 1019.2 0.0
22/10:30am E 18 22 - - - - 10 - - 26.3 1019.4 0.0
22/10:00am E 18 22 - - - - 10 - - 25.1 1019.7 0.0
22/09:30am E 17 21 - - - - 10 - - 24.5 1019.9 0.0

Other formats

Comma delimited format used in spreadsheet applications
http://www.bom.gov.au/fwo/IDW60701/IDW60701.95307.axf

JavaScript Object Notation format (JSON) in row-major order
http://www.bom.gov.au/fwo/IDW60701/IDW60701.95307.json

Data quality

Most of these data are generated automatically and are frequently updated. Quality checks on data are not normally performed. It is possible for incorrect values to appear. Refer to information at About Latest Weather Observations and please check the disclaimer before using these data.